sensor_id;sensor_type;location;lat;lon;timestamp;P1;P2;P0
20371;PMS7003;42924;37.564;-122.048;2022-09-01T00:00:30;1.40;1.40;1.40
20371;PMS7003;42924;37.564;-122.048;2022-09-01T00:03:01;1.20;1.20;1.00
20371;PMS7003;42924;37.564;-122.048;2022-09-01T00:05:32;2.00;2.00;2.00
20371;PMS7003;42924;37.564;-122.048;2022-09-01T00:08:04;1.80;1.80;1.40
20371;PMS7003;42924;37.564;-122.048;2022-09-01T00:10:35;2.00;2.00;1.40
20371;PMS7003;42924;37.564;-122.048;2022-09-01T00:13:07;2.00;2.00;2.00
20371;PMS7003;42924;37.564;-122.048;2022-09-01T00:15:38;1.00;1.00;1.00
20371;PMS7003;42924;37.564;-122.048;2022-09-01T00:18:10;2.40;2.40;2.40
20371;PMS7003;42924;37.564;-122.048;2022-09-01T00:20:41;4.00;4.00;3.20
20371;PMS7003;42924;37.564;-122.048;2022-09-01T00:23:12;3.00;3.00;2.60
20371;PMS7003;42924;37.564;-122.048;2022-09-01T00:25:43;1.80;1.80;1.80
20371;PMS7003;42924;37.564;-122.048;2022-09-01T00:28:13;2.00;2.00;2.00
20371;PMS7003;42924;37.564;-122.048;2022-09-01T00:30:45;1.60;1.60;1.20
20371;PMS7003;42924;37.564;-122.048;2022-09-01T00:33:17;1.80;1.80;1.00
20371;PMS7003;42924;37.564;-122.048;2022-09-01T00:35:51;1.00;1.00;1.00
20371;PMS7003;42924;37.564;-122.048;2022-09-01T00:38:22;1.00;1.00;1.00
20371;PMS7003;42924;37.564;-122.048;2022-09-01T00:40:53;2.00;2.00;2.00
20371;PMS7003;42924;37.564;-122.048;2022-09-01T00:43:35;1.00;1.00;0.80
20371;PMS7003;42924;37.564;-122.048;2022-09-01T00:46:09;1.00;1.00;1.00
20371;PMS7003;42924;37.564;-122.048;2022-09-01T00:48:54;1.00;1.00;1.00
20371;PMS7003;42924;37.564;-122.048;2022-09-01T00:51:30;1.00;1.00;1.00
20371;PMS7003;42924;37.564;-122.048;2022-09-01T00:54:04;2.60;2.60;2.00
20371;PMS7003;42924;37.564;-122.048;2022-09-01T00:56:36;2.00;2.00;2.00
20371;PMS7003;42924;37.564;-122.048;2022-09-01T00:59:17;2.60;2.60;2.60
20371;PMS7003;42924;37.564;-122.048;2022-09-01T01:01:54;2.00;2.00;2.00
20371;PMS7003;42924;37.564;-122.048;2022-09-01T01:04:25;4.20;4.20;3.60
20371;PMS7003;42924;37.564;-122.048;2022-09-01T01:06:59;3.20;3.20;3.00
20371;PMS7003;42924;37.564;-122.048;2022-09-01T01:09:34;3.60;3.60;3.00
20371;PMS7003;42924;37.564;-122.048;2022-09-01T01:12:08;3.80;3.80;2.80
20371;PMS7003;42924;37.564;-122.048;2022-09-01T01:14:50;2.60;2.60;2.20
20371;PMS7003;42924;37.564;-122.048;2022-09-01T01:17:26;2.00;2.00;2.00
20371;PMS7003;42924;37.564;-122.048;2022-09-01T01:19:59;2.00;2.00;1.80
20371;PMS7003;42924;37.564;-122.048;2022-09-01T01:25:41;0.00;0.00;0.00
20371;PMS7003;42924;37.564;-122.048;2022-09-01T01:28:16;2.00;2.00;2.00
20371;PMS7003;42924;37.564;-122.048;2022-09-01T01:30:55;1.20;1.20;1.00
20371;PMS7003;42924;37.564;-122.048;2022-09-01T01:33:38;0.40;0.40;0.40
20371;PMS7003;42924;37.564;-122.048;2022-09-01T01:36:17;0.00;0.00;0.00
20371;PMS7003;42924;37.564;-122.048;2022-09-01T01:39:18;0.00;0.00;0.00
20371;PMS7003;42924;37.564;-122.048;2022-09-01T01:41:57;0.00;0.00;0.00
20371;PMS7003;42924;37.564;-122.048;2022-09-01T01:44:31;0.00;0.00;0.00
20371;PMS7003;42924;37.564;-122.048;2022-09-01T01:47:06;3.40;2.00;1.40
20371;PMS7003;42924;37.564;-122.048;2022-09-01T01:49:43;5.00;4.20;2.40
20371;PMS7003;42924;37.564;-122.048;2022-09-01T01:52:18;1.00;1.00;1.00
20371;PMS7003;42924;37.564;-122.048;2022-09-01T01:54:54;0.60;0.60;0.00
20371;PMS7003;42924;37.564;-122.048;2022-09-01T01:57:32;2.00;2.00;1.40
20371;PMS7003;42924;37.564;-122.048;2022-09-01T02:00:17;3.00;1.00;1.00
20371;PMS7003;42924;37.564;-122.048;2022-09-01T02:02:57;2.00;2.00;1.00
20371;PMS7003;42924;37.564;-122.048;2022-09-01T02:05:30;1.00;1.00;1.00
20371;PMS7003;42924;37.564;-122.048;2022-09-01T02:08:04;0.00;0.00;0.00
20371;PMS7003;42924;37.564;-122.048;2022-09-01T02:10:42;1.00;1.00;1.00
20371;PMS7003;42924;37.564;-122.048;2022-09-01T02:13:26;0.00;0.00;0.00
20371;PMS7003;42924;37.564;-122.048;2022-09-01T02:16:04;1.00;1.00;0.00
20371;PMS7003;42924;37.564;-122.048;2022-09-01T02:18:44;0.00;0.00;0.00
20371;PMS7003;42924;37.564;-122.048;2022-09-01T02:21:22;1.00;1.00;1.00
20371;PMS7003;42924;37.564;-122.048;2022-09-01T02:24:06;1.00;1.00;1.00
20371;PMS7003;42924;37.564;-122.048;2022-09-01T02:26:40;0.80;0.80;0.00
20371;PMS7003;42924;37.564;-122.048;2022-09-01T02:29:16;0.00;0.00;0.00
20371;PMS7003;42924;37.564;-122.048;2022-09-01T02:31:50;0.00;0.00;0.00
20371;PMS7003;42924;37.564;-122.048;2022-09-01T02:34:22;0.00;0.00;0.00
20371;PMS7003;42924;37.564;-122.048;2022-09-01T02:36:58;2.80;0.60;0.40
20371;PMS7003;42924;37.564;-122.048;2022-09-01T02:39:30;0.00;0.00;0.00
20371;PMS7003;42924;37.564;-122.048;2022-09-01T02:42:02;0.00;0.00;0.00
20371;PMS7003;42924;37.564;-122.048;2022-09-01T02:44:33;0.00;0.00;0.00
20371;PMS7003;42924;37.564;-122.048;2022-09-01T02:47:07;1.20;1.20;1.00
20371;PMS7003;42924;37.564;-122.048;2022-09-01T02:49:38;0.00;0.00;0.00
20371;PMS7003;42924;37.564;-122.048;2022-09-01T02:52:11;1.00;1.00;1.00
20371;PMS7003;42924;37.564;-122.048;2022-09-01T02:54:43;1.00;1.00;0.00
20371;PMS7003;42924;37.564;-122.048;2022-09-01T02:57:16;1.00;1.00;0.60
20371;PMS7003;42924;37.564;-122.048;2022-09-01T02:59:52;1.00;1.00;0.60
20371;PMS7003;42924;37.564;-122.048;2022-09-01T03:02:31;1.00;1.00;0.20
20371;PMS7003;42924;37.564;-122.048;2022-09-01T03:05:03;0.00;0.00;0.00
20371;PMS7003;42924;37.564;-122.048;2022-09-01T03:07:35;1.00;1.00;1.00
20371;PMS7003;42924;37.564;-122.048;2022-09-01T03:10:05;0.20;0.20;0.00
20371;PMS7003;42924;37.564;-122.048;2022-09-01T03:12:37;0.00;0.00;0.00
20371;PMS7003;42924;37.564;-122.048;2022-09-01T03:15:09;0.00;0.00;0.00
20371;PMS7003;42924;37.564;-122.048;2022-09-01T03:17:42;0.20;0.20;0.20
20371;PMS7003;42924;37.564;-122.048;2022-09-01T03:20:14;0.00;0.00;0.00
20371;PMS7003;42924;37.564;-122.048;2022-09-01T03:22:48;1.00;1.00;1.00
20371;PMS7003;42924;37.564;-122.048;2022-09-01T03:25:21;0.80;0.80;0.80
20371;PMS7003;42924;37.564;-122.048;2022-09-01T03:27:54;0.20;0.20;0.00
20371;PMS7003;42924;37.564;-122.048;2022-09-01T03:30:33;1.00;1.00;1.00
20371;PMS7003;42924;37.564;-122.048;2022-09-01T03:33:09;1.00;1.00;0.00
20371;PMS7003;42924;37.564;-122.048;2022-09-01T03:35:40;1.00;1.00;0.60
20371;PMS7003;42924;37.564;-122.048;2022-09-01T03:38:13;1.00;1.00;1.00
20371;PMS7003;42924;37.564;-122.048;2022-09-01T03:40:53;2.20;2.20;2.00
20371;PMS7003;42924;37.564;-122.048;2022-09-01T03:43:31;2.50;2.50;2.00
20371;PMS7003;42924;37.564;-122.048;2022-09-01T03:46:03;35.75;31.75;22.50
20371;PMS7003;42924;37.564;-122.048;2022-09-01T03:48:37;22.75;21.75;14.25
20371;PMS7003;42924;37.564;-122.048;2022-09-01T03:51:08;6.50;6.00;5.25
20371;PMS7003;42924;37.564;-122.048;2022-09-01T03:53:44;4.25;4.25;4.00
20371;PMS7003;42924;37.564;-122.048;2022-09-01T03:56:15;2.00;2.00;2.00
20371;PMS7003;42924;37.564;-122.048;2022-09-01T03:58:47;1.20;1.20;1.00
20371;PMS7003;42924;37.564;-122.048;2022-09-01T04:01:21;0.80;0.80;0.80
20371;PMS7003;42924;37.564;-122.048;2022-09-01T04:03:52;1.00;1.00;1.00
20371;PMS7003;42924;37.564;-122.048;2022-09-01T04:06:30;2.00;2.00;2.00
20371;PMS7003;42924;37.564;-122.048;2022-09-01T04:09:02;1.00;1.00;1.00
20371;PMS7003;42924;37.564;-122.048;2022-09-01T04:11:34;2.00;2.00;1.00
20371;PMS7003;42924;37.564;-122.048;2022-09-01T04:14:14;1.00;1.00;1.00
20371;PMS7003;42924;37.564;-122.048;2022-09-01T04:16:50;1.00;1.00;1.00
20371;PMS7003;42924;37.564;-122.048;2022-09-01T04:19:39;1.40;1.40;0.60
20371;PMS7003;42924;37.564;-122.048;2022-09-01T04:22:11;0.60;0.60;0.00
20371;PMS7003;42924;37.564;-122.048;2022-09-01T04:24:43;1.00;1.00;1.00
20371;PMS7003;42924;37.564;-122.048;2022-09-01T04:27:16;1.25;1.25;1.25
20371;PMS7003;42924;37.564;-122.048;2022-09-01T04:29:53;1.00;1.00;0.20
20371;PMS7003;42924;37.564;-122.048;2022-09-01T04:32:31;0.00;0.00;0.00
20371;PMS7003;42924;37.564;-122.048;2022-09-01T04:35:04;1.00;1.00;1.00
20371;PMS7003;42924;37.564;-122.048;2022-09-01T04:37:36;1.00;1.00;1.00
20371;PMS7003;42924;37.564;-122.048;2022-09-01T04:40:08;1.00;1.00;0.80
20371;PMS7003;42924;37.564;-122.048;2022-09-01T04:42:42;1.60;0.80;0.80
20371;PMS7003;42924;37.564;-122.048;2022-09-01T04:45:12;2.20;1.00;1.00
20371;PMS7003;42924;37.564;-122.048;2022-09-01T04:47:48;1.00;1.00;1.00
20371;PMS7003;42924;37.564;-122.048;2022-09-01T04:50:20;0.20;0.20;0.20
20371;PMS7003;42924;37.564;-122.048;2022-09-01T04:53:10;0.80;0.80;0.60
20371;PMS7003;42924;37.564;-122.048;2022-09-01T04:55:45;1.00;1.00;1.00
20371;PMS7003;42924;37.564;-122.048;2022-09-01T04:58:19;0.00;0.00;0.00
20371;PMS7003;42924;37.564;-122.048;2022-09-01T05:00:50;0.00;0.00;0.00
20371;PMS7003;42924;37.564;-122.048;2022-09-01T05:03:20;1.00;1.00;0.00
20371;PMS7003;42924;37.564;-122.048;2022-09-01T05:06:15;0.00;0.00;0.00
20371;PMS7003;42924;37.564;-122.048;2022-09-01T05:08:51;0.00;0.00;0.00
20371;PMS7003;42924;37.564;-122.048;2022-09-01T05:11:38;0.00;0.00;0.00
20371;PMS7003;42924;37.564;-122.048;2022-09-01T05:14:21;0.00;0.00;0.00
20371;PMS7003;42924;37.564;-122.048;2022-09-01T05:16:57;1.00;1.00;1.00
20371;PMS7003;42924;37.564;-122.048;2022-09-01T05:19:28;1.00;1.00;1.00
20371;PMS7003;42924;37.564;-122.048;2022-09-01T05:22:00;1.00;1.00;1.00
20371;PMS7003;42924;37.564;-122.048;2022-09-01T05:24:32;1.00;1.00;1.00
20371;PMS7003;42924;37.564;-122.048;2022-09-01T05:27:11;0.40;0.40;0.00
20371;PMS7003;42924;37.564;-122.048;2022-09-01T05:29:44;1.00;1.00;1.00
20371;PMS7003;42924;37.564;-122.048;2022-09-01T05:32:18;0.60;0.40;0.20
20371;PMS7003;42924;37.564;-122.048;2022-09-01T05:34:53;0.00;0.00;0.00
20371;PMS7003;42924;37.564;-122.048;2022-09-01T05:37:25;1.00;1.00;1.00
20371;PMS7003;42924;37.564;-122.048;2022-09-01T05:40:00;0.00;0.00;0.00
20371;PMS7003;42924;37.564;-122.048;2022-09-01T05:42:32;0.00;0.00;0.00
20371;PMS7003;42924;37.564;-122.048;2022-09-01T05:45:02;0.80;0.80;0.40
20371;PMS7003;42924;37.564;-122.048;2022-09-01T05:47:35;1.00;1.00;0.80
20371;PMS7003;42924;37.564;-122.048;2022-09-01T05:50:07;1.00;1.00;1.00
20371;PMS7003;42924;37.564;-122.048;2022-09-01T05:52:44;2.00;2.00;1.00
20371;PMS7003;42924;37.564;-122.048;2022-09-01T05:55:16;1.00;1.00;0.75
20371;PMS7003;42924;37.564;-122.048;2022-09-01T05:57:48;1.00;1.00;0.75
20371;PMS7003;42924;37.564;-122.048;2022-09-01T06:00:18;3.00;2.00;1.00
20371;PMS7003;42924;37.564;-122.048;2022-09-01T06:02:51;0.00;0.00;0.00
20371;PMS7003;42924;37.564;-122.048;2022-09-01T06:05:25;2.50;1.50;1.00
20371;PMS7003;42924;37.564;-122.048;2022-09-01T06:07:57;1.00;1.00;0.75
20371;PMS7003;42924;37.564;-122.048;2022-09-01T06:10:29;1.00;1.00;1.00
20371;PMS7003;42924;37.564;-122.048;2022-09-01T06:13:05;1.00;1.00;1.00
20371;PMS7003;42924;37.564;-122.048;2022-09-01T06:15:37;1.00;1.00;1.00
20371;PMS7003;42924;37.564;-122.048;2022-09-01T06:18:14;1.00;1.00;1.00
20371;PMS7003;42924;37.564;-122.048;2022-09-01T06:20:54;0.25;0.25;0.00
20371;PMS7003;42924;37.564;-122.048;2022-09-01T06:23:24;1.00;1.00;1.00
20371;PMS7003;42924;37.564;-122.048;2022-09-01T06:25:55;1.00;1.00;0.50
20371;PMS7003;42924;37.564;-122.048;2022-09-01T06:28:29;1.25;1.25;1.00
20371;PMS7003;42924;37.564;-122.048;2022-09-01T06:31:04;0.00;0.00;0.00
20371;PMS7003;42924;37.564;-122.048;2022-09-01T06:33:37;1.00;1.00;0.75
20371;PMS7003;42924;37.564;-122.048;2022-09-01T06:36:09;0.00;0.00;0.00
20371;PMS7003;42924;37.564;-122.048;2022-09-01T06:38:42;1.00;1.00;0.80
20371;PMS7003;42924;37.564;-122.048;2022-09-01T06:41:13;0.25;0.25;0.25
20371;PMS7003;42924;37.564;-122.048;2022-09-01T06:43:46;1.00;1.00;1.00
20371;PMS7003;42924;37.564;-122.048;2022-09-01T06:46:20;0.00;0.00;0.00
20371;PMS7003;42924;37.564;-122.048;2022-09-01T06:49:01;1.00;1.00;1.00
20371;PMS7003;42924;37.564;-122.048;2022-09-01T06:51:32;0.00;0.00;0.00
20371;PMS7003;42924;37.564;-122.048;2022-09-01T06:54:03;0.25;0.25;0.00
20371;PMS7003;42924;37.564;-122.048;2022-09-01T06:56:43;1.00;1.00;0.80
20371;PMS7003;42924;37.564;-122.048;2022-09-01T06:59:20;1.00;1.00;1.00
20371;PMS7003;42924;37.564;-122.048;2022-09-01T07:01:53;1.00;1.00;1.00
20371;PMS7003;42924;37.564;-122.048;2022-09-01T07:04:51;1.00;1.00;1.00
20371;PMS7003;42924;37.564;-122.048;2022-09-01T07:07:23;1.00;1.00;1.00
20371;PMS7003;42924;37.564;-122.048;2022-09-01T07:10:41;1.00;1.00;1.00
20371;PMS7003;42924;37.564;-122.048;2022-09-01T07:13:38;1.00;1.00;1.00
20371;PMS7003;42924;37.564;-122.048;2022-09-01T07:16:31;1.25;1.25;1.00
20371;PMS7003;42924;37.564;-122.048;2022-09-01T07:19:20;1.00;1.00;1.00
20371;PMS7003;42924;37.564;-122.048;2022-09-01T07:22:12;2.00;2.00;1.00
20371;PMS7003;42924;37.564;-122.048;2022-09-01T07:25:04;1.00;1.00;1.00
20371;PMS7003;42924;37.564;-122.048;2022-09-01T07:27:57;0.00;0.00;0.00
20371;PMS7003;42924;37.564;-122.048;2022-09-01T07:30:29;3.00;1.00;1.00
20371;PMS7003;42924;37.564;-122.048;2022-09-01T07:33:01;1.25;1.25;1.00
20371;PMS7003;42924;37.564;-122.048;2022-09-01T07:36:01;2.00;2.00;1.00
20371;PMS7003;42924;37.564;-122.048;2022-09-01T07:38:53;0.00;0.00;0.00
20371;PMS7003;42924;37.564;-122.048;2022-09-01T07:41:56;0.50;0.50;0.50
20371;PMS7003;42924;37.564;-122.048;2022-09-01T07:45:07;0.75;0.75;0.75
20371;PMS7003;42924;37.564;-122.048;2022-09-01T07:47:57;0.00;0.00;0.00
20371;PMS7003;42924;37.564;-122.048;2022-09-01T07:50:40;1.25;1.25;1.25
20371;PMS7003;42924;37.564;-122.048;2022-09-01T07:53:35;1.25;1.25;1.25
20371;PMS7003;42924;37.564;-122.048;2022-09-01T07:56:12;2.00;2.00;2.00
20371;PMS7003;42924;37.564;-122.048;2022-09-01T07:58:50;1.50;1.50;1.00
20371;PMS7003;42924;37.564;-122.048;2022-09-01T08:01:25;2.00;2.00;2.00
20371;PMS7003;42924;37.564;-122.048;2022-09-01T08:03:58;1.00;1.00;0.75
20371;PMS7003;42924;37.564;-122.048;2022-09-01T08:06:30;1.00;1.00;1.00
20371;PMS7003;42924;37.564;-122.048;2022-09-01T08:09:08;1.00;1.00;1.00
20371;PMS7003;42924;37.564;-122.048;2022-09-01T08:12:01;1.50;1.50;1.25
20371;PMS7003;42924;37.564;-122.048;2022-09-01T08:14:52;0.60;0.60;0.60
20371;PMS7003;42924;37.564;-122.048;2022-09-01T08:17:44;1.75;1.75;1.75
20371;PMS7003;42924;37.564;-122.048;2022-09-01T08:20:22;1.00;1.00;0.00
20371;PMS7003;42924;37.564;-122.048;2022-09-01T08:22:57;2.50;1.00;0.75
20371;PMS7003;42924;37.564;-122.048;2022-09-01T08:25:34;1.00;1.00;0.50
20371;PMS7003;42924;37.564;-122.048;2022-09-01T08:28:06;0.75;0.75;0.25
20371;PMS7003;42924;37.564;-122.048;2022-09-01T08:30:39;1.00;1.00;1.00
20371;PMS7003;42924;37.564;-122.048;2022-09-01T08:33:21;1.25;1.25;1.25
20371;PMS7003;42924;37.564;-122.048;2022-09-01T08:35:51;1.00;1.00;1.00
20371;PMS7003;42924;37.564;-122.048;2022-09-01T08:38:25;0.25;0.25;0.25
20371;PMS7003;42924;37.564;-122.048;2022-09-01T08:40:59;2.00;2.00;1.00
20371;PMS7003;42924;37.564;-122.048;2022-09-01T08:43:49;0.00;0.00;0.00
20371;PMS7003;42924;37.564;-122.048;2022-09-01T08:46:32;1.25;1.25;0.25
20371;PMS7003;42924;37.564;-122.048;2022-09-01T08:49:28;0.75;0.75;0.50
20371;PMS7003;42924;37.564;-122.048;2022-09-01T08:58:16;1.75;1.75;1.00
20371;PMS7003;42924;37.564;-122.048;2022-09-01T09:01:08;1.00;1.00;1.00
20371;PMS7003;42924;37.564;-122.048;2022-09-01T09:07:04;1.00;1.00;1.00
20371;PMS7003;42924;37.564;-122.048;2022-09-01T09:09:55;1.75;1.75;1.00
20371;PMS7003;42924;37.564;-122.048;2022-09-01T09:12:38;1.75;1.75;1.25
20371;PMS7003;42924;37.564;-122.048;2022-09-01T09:21:24;1.25;1.00;1.00
20371;PMS7003;42924;37.564;-122.048;2022-09-01T09:24:09;2.60;2.00;1.80
20371;PMS7003;42924;37.564;-122.048;2022-09-01T09:26:54;1.00;1.00;1.00
20371;PMS7003;42924;37.564;-122.048;2022-09-01T09:29:27;1.75;1.75;1.50
20371;PMS7003;42924;37.564;-122.048;2022-09-01T09:32:03;1.25;1.25;1.25
20371;PMS7003;42924;37.564;-122.048;2022-09-01T09:34:56;1.00;1.00;1.00
20371;PMS7003;42924;37.564;-122.048;2022-09-01T09:37:46;1.00;1.00;1.00
20371;PMS7003;42924;37.564;-122.048;2022-09-01T09:45:30;1.00;1.00;1.00
20371;PMS7003;42924;37.564;-122.048;2022-09-01T09:48:31;1.00;1.00;0.75
20371;PMS7003;42924;37.564;-122.048;2022-09-01T09:51:14;1.50;1.50;1.00
20371;PMS7003;42924;37.564;-122.048;2022-09-01T09:53:48;1.00;1.00;1.00
20371;PMS7003;42924;37.564;-122.048;2022-09-01T09:56:21;1.50;1.50;1.50
20371;PMS7003;42924;37.564;-122.048;2022-09-01T09:58:53;1.00;1.00;1.00
20371;PMS7003;42924;37.564;-122.048;2022-09-01T10:01:28;1.00;1.00;1.00
20371;PMS7003;42924;37.564;-122.048;2022-09-01T10:04:02;2.00;2.00;2.00
20371;PMS7003;42924;37.564;-122.048;2022-09-01T10:06:37;2.00;2.00;2.00
20371;PMS7003;42924;37.564;-122.048;2022-09-01T10:11:50;2.25;2.25;1.50
20371;PMS7003;42924;37.564;-122.048;2022-09-01T10:14:26;2.00;2.00;2.00
20371;PMS7003;42924;37.564;-122.048;2022-09-01T10:17:22;2.00;2.00;1.75
20371;PMS7003;42924;37.564;-122.048;2022-09-01T10:19:59;2.00;2.00;2.00
20371;PMS7003;42924;37.564;-122.048;2022-09-01T10:22:38;1.25;1.00;1.00
20371;PMS7003;42924;37.564;-122.048;2022-09-01T10:25:21;2.75;2.75;2.00
20371;PMS7003;42924;37.564;-122.048;2022-09-01T10:28:13;1.00;1.00;1.00
20371;PMS7003;42924;37.564;-122.048;2022-09-01T10:30:50;1.75;1.75;1.00
20371;PMS7003;42924;37.564;-122.048;2022-09-01T10:33:22;5.00;2.00;2.00
20371;PMS7003;42924;37.564;-122.048;2022-09-01T10:35:54;1.00;1.00;1.00
20371;PMS7003;42924;37.564;-122.048;2022-09-01T10:38:26;2.50;2.50;2.00
20371;PMS7003;42924;37.564;-122.048;2022-09-01T10:40:58;2.00;2.00;2.00
20371;PMS7003;42924;37.564;-122.048;2022-09-01T10:43:45;2.00;2.00;1.50
20371;PMS7003;42924;37.564;-122.048;2022-09-01T10:48:56;2.00;2.00;2.00
20371;PMS7003;42924;37.564;-122.048;2022-09-01T10:54:05;2.00;2.00;2.00
20371;PMS7003;42924;37.564;-122.048;2022-09-01T11:02:11;1.75;1.75;1.50
20371;PMS7003;42924;37.564;-122.048;2022-09-01T11:07:29;1.50;1.50;1.00
20371;PMS7003;42924;37.564;-122.048;2022-09-01T11:10:32;2.00;2.00;1.50
20371;PMS7003;42924;37.564;-122.048;2022-09-01T11:15:54;1.25;1.25;1.00
20371;PMS7003;42924;37.564;-122.048;2022-09-01T11:27:11;2.00;2.00;2.00
20371;PMS7003;42924;37.564;-122.048;2022-09-01T11:30:07;1.75;1.75;1.50
20371;PMS7003;42924;37.564;-122.048;2022-09-01T11:32:40;2.00;2.00;2.00
20371;PMS7003;42924;37.564;-122.048;2022-09-01T11:35:15;1.75;1.75;1.25
20371;PMS7003;42924;37.564;-122.048;2022-09-01T11:37:49;2.00;2.00;1.75
20371;PMS7003;42924;37.564;-122.048;2022-09-01T11:40:28;1.00;1.00;1.00
20371;PMS7003;42924;37.564;-122.048;2022-09-01T11:43:06;3.00;1.50;1.00
20371;PMS7003;42924;37.564;-122.048;2022-09-01T11:48:59;1.75;1.75;1.25
20371;PMS7003;42924;37.564;-122.048;2022-09-01T11:51:41;2.00;2.00;2.00
20371;PMS7003;42924;37.564;-122.048;2022-09-01T11:54:16;0.00;0.00;0.00
20371;PMS7003;42924;37.564;-122.048;2022-09-01T11:56:50;2.00;2.00;2.00
20371;PMS7003;42924;37.564;-122.048;2022-09-01T11:59:32;2.00;2.00;2.00
20371;PMS7003;42924;37.564;-122.048;2022-09-01T12:02:05;2.00;2.00;2.00
20371;PMS7003;42924;37.564;-122.048;2022-09-01T12:04:36;2.25;2.25;2.00
20371;PMS7003;42924;37.564;-122.048;2022-09-01T12:07:23;2.00;2.00;1.75
20371;PMS7003;42924;37.564;-122.048;2022-09-01T12:09:56;1.00;1.00;1.00
20371;PMS7003;42924;37.564;-122.048;2022-09-01T12:12:35;2.00;2.00;2.00
20371;PMS7003;42924;37.564;-122.048;2022-09-01T12:15:22;3.00;3.00;3.00
20371;PMS7003;42924;37.564;-122.048;2022-09-01T12:18:13;3.00;3.00;2.75
20371;PMS7003;42924;37.564;-122.048;2022-09-01T12:20:48;1.75;1.75;1.25
20371;PMS7003;42924;37.564;-122.048;2022-09-01T12:23:31;2.75;2.75;2.00
20371;PMS7003;42924;37.564;-122.048;2022-09-01T12:26:24;3.00;3.00;2.00
20371;PMS7003;42924;37.564;-122.048;2022-09-01T12:28:59;3.00;3.00;2.25
20371;PMS7003;42924;37.564;-122.048;2022-09-01T12:31:31;3.00;3.00;2.25
20371;PMS7003;42924;37.564;-122.048;2022-09-01T12:34:03;2.25;2.25;2.25
20371;PMS7003;42924;37.564;-122.048;2022-09-01T12:36:36;3.25;3.25;2.75
20371;PMS7003;42924;37.564;-122.048;2022-09-01T12:45:12;3.75;3.50;2.75
20371;PMS7003;42924;37.564;-122.048;2022-09-01T12:47:43;3.00;3.00;3.00
20371;PMS7003;42924;37.564;-122.048;2022-09-01T12:52:48;4.00;4.00;3.00
20371;PMS7003;42924;37.564;-122.048;2022-09-01T12:55:33;4.00;4.00;3.00
20371;PMS7003;42924;37.564;-122.048;2022-09-01T12:58:22;2.00;2.00;2.00
20371;PMS7003;42924;37.564;-122.048;2022-09-01T13:01:03;3.00;3.00;2.25
20371;PMS7003;42924;37.564;-122.048;2022-09-01T13:06:37;5.25;5.25;3.00
20371;PMS7003;42924;37.564;-122.048;2022-09-01T13:09:08;3.25;3.25;2.25
20371;PMS7003;42924;37.564;-122.048;2022-09-01T13:11:41;3.75;3.75;3.00
20371;PMS7003;42924;37.564;-122.048;2022-09-01T13:14:34;3.00;3.00;3.00
20371;PMS7003;42924;37.564;-122.048;2022-09-01T13:17:05;3.25;3.25;2.75
20371;PMS7003;42924;37.564;-122.048;2022-09-01T13:19:43;3.75;3.75;3.00
20371;PMS7003;42924;37.564;-122.048;2022-09-01T13:22:24;2.25;2.25;2.25
20371;PMS7003;42924;37.564;-122.048;2022-09-01T13:24:57;8.25;6.00;5.00
20371;PMS7003;42924;37.564;-122.048;2022-09-01T13:27:30;5.00;5.00;4.00
20371;PMS7003;42924;37.564;-122.048;2022-09-01T13:30:00;4.00;4.00;4.00
20371;PMS7003;42924;37.564;-122.048;2022-09-01T13:32:31;4.00;4.00;4.00
20371;PMS7003;42924;37.564;-122.048;2022-09-01T13:35:04;3.25;3.25;3.00
20371;PMS7003;42924;37.564;-122.048;2022-09-01T13:37:36;3.75;3.25;3.00
20371;PMS7003;42924;37.564;-122.048;2022-09-01T13:40:05;3.00;3.00;3.00
20371;PMS7003;42924;37.564;-122.048;2022-09-01T13:42:46;3.25;3.25;3.00
20371;PMS7003;42924;37.564;-122.048;2022-09-01T13:45:20;2.00;2.00;2.00
20371;PMS7003;42924;37.564;-122.048;2022-09-01T13:47:55;3.00;3.00;2.00
20371;PMS7003;42924;37.564;-122.048;2022-09-01T13:50:47;4.50;3.75;3.00
20371;PMS7003;42924;37.564;-122.048;2022-09-01T13:53:39;4.00;4.00;3.25
20371;PMS7003;42924;37.564;-122.048;2022-09-01T13:56:12;2.75;2.75;2.25
20371;PMS7003;42924;37.564;-122.048;2022-09-01T13:58:43;2.75;2.75;2.25
20371;PMS7003;42924;37.564;-122.048;2022-09-01T14:01:14;2.75;2.75;2.50
20371;PMS7003;42924;37.564;-122.048;2022-09-01T14:03:45;2.50;2.00;2.00
20371;PMS7003;42924;37.564;-122.048;2022-09-01T14:06:19;3.50;3.50;3.00
20371;PMS7003;42924;37.564;-122.048;2022-09-01T14:08:49;2.50;2.50;2.50
20371;PMS7003;42924;37.564;-122.048;2022-09-01T14:11:20;1.75;1.75;1.00
20371;PMS7003;42924;37.564;-122.048;2022-09-01T14:13:53;4.00;4.00;3.25
20371;PMS7003;42924;37.564;-122.048;2022-09-01T14:16:25;3.00;3.00;3.00
20371;PMS7003;42924;37.564;-122.048;2022-09-01T14:18:58;2.00;2.00;2.00
20371;PMS7003;42924;37.564;-122.048;2022-09-01T14:21:28;3.50;3.00;2.25
20371;PMS7003;42924;37.564;-122.048;2022-09-01T14:23:59;3.00;3.00;3.00
20371;PMS7003;42924;37.564;-122.048;2022-09-01T14:26:30;2.75;2.75;2.75
20371;PMS7003;42924;37.564;-122.048;2022-09-01T14:29:00;3.00;3.00;3.00
20371;PMS7003;42924;37.564;-122.048;2022-09-01T14:31:30;3.40;3.20;2.80
20371;PMS7003;42924;37.564;-122.048;2022-09-01T14:34:02;3.75;3.75;3.00
20371;PMS7003;42924;37.564;-122.048;2022-09-01T14:36:34;3.00;3.00;2.80
20371;PMS7003;42924;37.564;-122.048;2022-09-01T14:39:05;4.00;4.00;3.50
20371;PMS7003;42924;37.564;-122.048;2022-09-01T14:41:36;2.00;2.00;1.00
20371;PMS7003;42924;37.564;-122.048;2022-09-01T14:44:07;3.25;3.25;3.00
20371;PMS7003;42924;37.564;-122.048;2022-09-01T14:46:40;3.50;3.50;3.00
20371;PMS7003;42924;37.564;-122.048;2022-09-01T14:49:11;4.25;2.50;2.50
20371;PMS7003;42924;37.564;-122.048;2022-09-01T14:51:49;2.50;2.50;2.00
20371;PMS7003;42924;37.564;-122.048;2022-09-01T14:54:40;4.00;4.00;3.40
20371;PMS7003;42924;37.564;-122.048;2022-09-01T14:57:12;2.50;1.75;1.25
20371;PMS7003;42924;37.564;-122.048;2022-09-01T15:00:05;3.40;3.40;3.00
20371;PMS7003;42924;37.564;-122.048;2022-09-01T15:02:40;4.60;3.40;3.40
20371;PMS7003;42924;37.564;-122.048;2022-09-01T15:05:13;5.40;5.40;5.00
20371;PMS7003;42924;37.564;-122.048;2022-09-01T15:07:44;2.00;2.00;1.80
20371;PMS7003;42924;37.564;-122.048;2022-09-01T15:10:18;4.00;4.00;4.00
20371;PMS7003;42924;37.564;-122.048;2022-09-01T15:12:55;7.40;5.60;4.00
20371;PMS7003;42924;37.564;-122.048;2022-09-01T15:15:28;4.00;4.00;3.60
20371;PMS7003;42924;37.564;-122.048;2022-09-01T15:17:59;4.00;4.00;3.60
20371;PMS7003;42924;37.564;-122.048;2022-09-01T15:20:35;5.00;5.00;4.00
20371;PMS7003;42924;37.564;-122.048;2022-09-01T15:23:15;4.00;4.00;4.00
20371;PMS7003;42924;37.564;-122.048;2022-09-01T15:25:50;5.00;5.00;4.00
20371;PMS7003;42924;37.564;-122.048;2022-09-01T15:28:26;4.00;4.00;4.00
20371;PMS7003;42924;37.564;-122.048;2022-09-01T15:31:01;5.20;5.20;5.20
20371;PMS7003;42924;37.564;-122.048;2022-09-01T15:33:33;5.60;4.80;4.00
20371;PMS7003;42924;37.564;-122.048;2022-09-01T15:36:06;5.20;5.20;4.40
20371;PMS7003;42924;37.564;-122.048;2022-09-01T15:38:38;6.50;6.50;5.25
20371;PMS7003;42924;37.564;-122.048;2022-09-01T15:41:18;5.20;5.20;4.60
20371;PMS7003;42924;37.564;-122.048;2022-09-01T15:43:53;6.20;6.20;5.00
20371;PMS7003;42924;37.564;-122.048;2022-09-01T15:46:26;5.40;5.40;5.20